Time;durP1;ratioP1;P1;durP2;ratioP2;P2;SDS_P1;SDS_P2;PMS_P1;PMS_P2;Temp;Humidity;BMP_temperature;BMP_pressure;BME280_temperature;BME280_humidity;BME280_pressure;Samples;Min_cycle;Max_cycle;Signal;HPM_P1;HPM_P2
2021/12/28 00:01:30;;;;;;;25.63;15.20;;;4.50;66.50;;;;;;5067271;28;20024;-66
2021/12/28 00:03:55;;;;;;;24.52;15.15;;;4.50;66.40;;;;;;5067235;28;20527;-67
2021/12/28 00:06:21;;;;;;;28.40;15.20;;;4.40;66.30;;;;;;5068816;28;20060;-67
2021/12/28 00:08:48;;;;;;;28.10;15.30;;;4.50;66.50;;;;;;5069034;28;20381;-66
2021/12/28 00:11:14;;;;;;;23.30;14.70;;;4.40;66.70;;;;;;5068257;28;20052;-66
2021/12/28 00:13:43;;;;;;;24.20;15.70;;;4.40;67.00;;;;;;5069337;28;20048;-66
2021/12/28 00:18:36;;;;;;;25.55;15.77;;;4.50;67.00;;;;;;5069019;28;20182;-66
2021/12/28 00:21:04;;;;;;;21.92;14.32;;;4.50;66.90;;;;;;5067495;28;20043;-69
2021/12/28 00:23:39;;;;;;;28.48;15.35;;;4.50;66.90;;;;;;5067275;28;20036;-67
2021/12/28 00:26:13;;;;;;;21.77;14.20;;;4.60;66.80;;;;;;5066755;28;20083;-67
2021/12/28 00:28:40;;;;;;;23.88;14.75;;;4.60;66.80;;;;;;5068711;28;20025;-67
2021/12/28 00:31:06;;;;;;;24.90;15.25;;;4.50;66.80;;;;;;5065943;28;20360;-67
2021/12/28 00:33:32;;;;;;;24.42;15.98;;;4.60;66.80;;;;;;5068606;28;20031;-68
2021/12/28 00:35:58;;;;;;;25.38;15.35;;;4.60;66.80;;;;;;5066646;28;20037;-67
2021/12/28 00:38:25;;;;;;;22.90;14.95;;;4.60;66.80;;;;;;5067481;28;20029;-67
2021/12/28 00:40:57;;;;;;;24.92;14.70;;;4.50;67.00;;;;;;5067230;28;20024;-67
2021/12/28 00:43:23;;;;;;;24.67;15.20;;;4.60;67.10;;;;;;5066684;28;20037;-68
2021/12/28 00:45:49;;;;;;;25.95;15.07;;;4.60;67.10;;;;;;5071377;28;20037;-67
2021/12/28 00:48:15;;;;;;;27.98;15.52;;;4.60;67.10;;;;;;5071030;28;20055;-67
2021/12/28 00:50:41;;;;;;;25.65;15.43;;;4.50;67.20;;;;;;5071194;28;20047;-67
2021/12/28 00:53:09;;;;;;;29.13;16.50;;;4.60;67.50;;;;;;5069832;28;20029;-67
2021/12/28 00:55:34;;;;;;;30.60;16.65;;;4.60;67.40;;;;;;5071626;28;20145;-66
2021/12/28 00:58:01;;;;;;;28.08;15.88;;;4.60;67.50;;;;;;5070350;28;20028;-69
2021/12/28 01:00:29;;;;;;;26.15;15.55;;;4.60;67.60;;;;;;5072260;28;20025;-66
2021/12/28 01:02:57;;;;;;;26.70;15.90;;;4.60;67.60;;;;;;5072108;28;20064;-68
2021/12/28 01:05:24;;;;;;;26.65;15.93;;;4.60;67.60;;;;;;5068679;28;20529;-67
2021/12/28 01:07:49;;;;;;;29.92;15.02;;;4.60;67.80;;;;;;5070347;28;20123;-67
2021/12/28 01:10:19;;;;;;;23.40;14.27;;;4.60;67.90;;;;;;5069049;28;20151;-66
2021/12/28 01:12:46;;;;;;;27.63;15.38;;;4.60;68.10;;;;;;5071020;28;20040;-67
2021/12/28 01:15:14;;;;;;;23.88;14.77;;;4.50;68.40;;;;;;5070419;28;20025;-66
2021/12/28 01:17:40;;;;;;;24.15;14.48;;;4.50;68.70;;;;;;5071680;28;20036;-66
2021/12/28 01:20:08;;;;;;;24.23;15.10;;;4.40;68.90;;;;;;5069114;28;20017;-68
2021/12/28 01:22:34;;;;;;;25.65;15.55;;;4.40;69.20;;;;;;5071617;28;20031;-67
2021/12/28 01:25:00;;;;;;;27.70;16.20;;;4.40;69.40;;;;;;5071359;28;20032;-67
2021/12/28 01:27:26;;;;;;;25.65;15.43;;;4.40;69.60;;;;;;5071677;28;20107;-67
2021/12/28 01:29:52;;;;;;;24.95;15.13;;;4.40;69.90;;;;;;5070698;28;20036;-67
2021/12/28 01:32:18;;;;;;;25.40;14.73;;;4.30;70.00;;;;;;5071454;28;20023;-67
2021/12/28 01:34:44;;;;;;;29.60;14.70;;;4.30;70.30;;;;;;5072634;28;20047;-66
2021/12/28 01:37:10;;;;;;;24.17;14.27;;;4.30;70.40;;;;;;5073902;28;20415;-67
2021/12/28 01:39:36;;;;;;;24.90;14.73;;;4.20;70.50;;;;;;5067084;28;20026;-67
2021/12/28 01:42:05;;;;;;;23.25;15.10;;;4.20;70.60;;;;;;5068951;28;20036;-68
2021/12/28 01:44:32;;;;;;;22.23;13.52;;;4.30;70.90;;;;;;5068135;28;20060;-66
2021/12/28 01:46:58;;;;;;;22.15;14.02;;;4.30;70.90;;;;;;5069880;28;20044;-66
2021/12/28 01:49:24;;;;;;;21.95;14.25;;;4.30;70.80;;;;;;5068996;28;20462;-67
2021/12/28 01:51:50;;;;;;;22.92;14.20;;;4.30;70.80;;;;;;5071304;28;20028;-66
2021/12/28 01:54:16;;;;;;;25.40;14.98;;;4.30;71.10;;;;;;5067166;28;20090;-66
2021/12/28 01:56:45;;;;;;;26.77;14.70;;;4.20;71.10;;;;;;5069572;28;20037;-66
2021/12/28 01:59:15;;;;;;;23.67;14.30;;;4.20;71.30;;;;;;5068512;28;20032;-66
2021/12/28 02:01:41;;;;;;;24.77;14.55;;;4.20;71.30;;;;;;5071107;28;20040;-66
2021/12/28 02:04:20;;;;;;;23.40;13.95;;;4.30;71.40;;;;;;5069422;28;20486;-67
2021/12/28 02:06:46;;;;;;;24.08;13.68;;;4.40;71.20;;;;;;5071943;28;20024;-66
2021/12/28 02:09:13;;;;;;;21.55;13.63;;;4.40;71.10;;;;;;5070138;28;20036;-66
2021/12/28 02:11:40;;;;;;;24.95;14.18;;;4.30;71.20;;;;;;5090870;28;20054;-66
2021/12/28 02:14:08;;;;;;;21.42;14.07;;;4.30;71.30;;;;;;5076321;28;20059;-66
2021/12/28 02:16:39;;;;;;;23.08;13.10;;;4.30;71.30;;;;;;5071746;28;20035;-67
2021/12/28 02:19:07;;;;;;;24.00;13.75;;;4.30;71.40;;;;;;5070018;28;20106;-66
2021/12/28 02:21:33;;;;;;;23.92;14.45;;;4.40;71.40;;;;;;5071759;28;20111;-67
2021/12/28 02:24:00;;;;;;;23.42;13.57;;;4.50;71.20;;;;;;5071308;28;20123;-67
2021/12/28 02:26:26;;;;;;;25.25;13.13;;;4.50;71.00;;;;;;5073613;28;20028;-65
2021/12/28 02:28:52;;;;;;;22.80;13.90;;;4.40;70.80;;;;;;5088663;28;20032;-66
2021/12/28 02:31:18;;;;;;;22.83;14.15;;;4.40;71.00;;;;;;5071185;28;20351;-66
2021/12/28 02:33:46;;;;;;;21.95;13.02;;;4.40;71.20;;;;;;5071307;28;20123;-66
2021/12/28 02:36:12;;;;;;;21.63;13.40;;;4.40;71.10;;;;;;5071089;28;20079;-66
2021/12/28 02:38:38;;;;;;;20.35;13.70;;;4.50;70.90;;;;;;5070902;28;20071;-66
2021/12/28 02:41:04;;;;;;;24.67;13.77;;;4.40;71.00;;;;;;5070701;28;20095;-66
2021/12/28 02:43:30;;;;;;;22.10;13.80;;;4.50;71.10;;;;;;5069603;28;20040;-66
2021/12/28 02:45:59;;;;;;;21.17;12.82;;;4.50;70.90;;;;;;5076222;28;20028;-66
2021/12/28 02:48:26;;;;;;;22.33;12.52;;;4.60;70.90;;;;;;5070875;28;20020;-66
2021/12/28 02:51:03;;;;;;;23.27;13.90;;;4.60;70.90;;;;;;5069982;28;20427;-67
2021/12/28 02:53:29;;;;;;;20.00;12.98;;;4.60;70.70;;;;;;5070541;28;20028;-67
2021/12/28 02:55:57;;;;;;;21.05;13.40;;;4.60;70.60;;;;;;5071220;28;20100;-67
2021/12/28 02:58:37;;;;;;;20.23;12.85;;;4.60;70.40;;;;;;5070585;28;20104;-67
2021/12/28 03:01:14;;;;;;;21.85;13.40;;;4.50;70.60;;;;;;5069860;28;20039;-68
2021/12/28 03:03:42;;;;;;;22.95;13.70;;;4.50;70.70;;;;;;5071221;28;20123;-66
2021/12/28 03:06:10;;;;;;;22.15;13.60;;;4.50;70.70;;;;;;5069651;28;20021;-66
2021/12/28 03:11:27;;;;;;;21.33;13.57;;;4.50;71.30;;;;;;5069732;28;20143;-67
2021/12/28 03:13:57;;;;;;;23.73;14.65;;;4.40;71.40;;;;;;5070356;28;20024;-66
2021/12/28 03:16:25;;;;;;;21.38;14.00;;;4.30;71.70;;;;;;5073815;28;20055;-67
2021/12/28 03:18:51;;;;;;;24.33;14.93;;;4.30;71.90;;;;;;5070344;28;20024;-67
2021/12/28 03:21:19;;;;;;;18.33;12.38;;;4.30;72.10;;;;;;5052412;28;20511;-66
2021/12/28 03:23:45;;;;;;;21.60;13.93;;;4.30;72.10;;;;;;5070982;28;20040;-67
2021/12/28 03:26:13;;;;;;;23.10;13.93;;;4.30;72.20;;;;;;5070125;28;20078;-66
2021/12/28 03:28:41;;;;;;;20.30;13.10;;;4.30;72.20;;;;;;5070336;28;20115;-66
2021/12/28 03:31:09;;;;;;;22.95;14.05;;;4.40;72.00;;;;;;5072443;28;20050;-66
2021/12/28 03:33:37;;;;;;;20.80;13.07;;;4.30;71.80;;;;;;5080810;28;20032;-66
2021/12/28 03:36:05;;;;;;;23.20;13.82;;;4.30;72.10;;;;;;5069517;28;20112;-66
2021/12/28 03:38:31;;;;;;;23.58;13.98;;;4.30;72.20;;;;;;5070479;28;20029;-65
2021/12/28 03:40:57;;;;;;;19.45;12.85;;;4.40;72.40;;;;;;5069274;28;20036;-66
2021/12/28 03:43:23;;;;;;;23.63;13.95;;;4.40;72.20;;;;;;5069988;28;20111;-66
2021/12/28 03:45:50;;;;;;;22.20;12.98;;;4.50;72.00;;;;;;5070336;28;20120;-67
2021/12/28 03:48:17;;;;;;;21.92;14.07;;;4.50;71.70;;;;;;5067963;28;20052;-65
2021/12/28 03:50:42;;;;;;;22.30;13.35;;;4.30;72.00;;;;;;5063499;28;20024;-67
2021/12/28 03:53:09;;;;;;;19.30;12.95;;;4.30;72.20;;;;;;5059624;28;20056;-66
2021/12/28 03:55:35;;;;;;;22.48;13.93;;;4.20;72.60;;;;;;5069205;28;20317;-66
2021/12/28 03:58:02;;;;;;;20.27;13.38;;;4.20;72.90;;;;;;5069962;28;20028;-66
2021/12/28 04:00:32;;;;;;;21.80;12.88;;;4.20;73.00;;;;;;5069985;28;20358;-66
2021/12/28 04:02:58;;;;;;;22.33;13.77;;;4.20;72.90;;;;;;5069291;28;20563;-65
2021/12/28 04:05:24;;;;;;;23.08;13.82;;;4.10;73.00;;;;;;5068397;28;20247;-66
2021/12/28 04:07:50;;;;;;;19.77;12.98;;;4.00;73.20;;;;;;5070307;28;20039;-66
2021/12/28 04:10:16;;;;;;;22.13;14.13;;;3.90;73.50;;;;;;5069332;28;20481;-66
2021/12/28 04:12:43;;;;;;;21.48;13.63;;;3.80;73.90;;;;;;5069909;28;20036;-66
2021/12/28 04:15:13;;;;;;;25.33;13.45;;;3.70;74.30;;;;;;5070152;28;20107;-66
2021/12/28 04:17:39;;;;;;;20.90;13.80;;;3.80;74.50;;;;;;5071211;28;20025;-66
2021/12/28 04:20:10;;;;;;;19.92;13.60;;;3.70;74.60;;;;;;5071732;28;20107;-67
2021/12/28 04:22:36;;;;;;;21.17;12.25;;;3.70;74.80;;;;;;5071618;28;20029;-66
2021/12/28 04:25:02;;;;;;;25.13;13.45;;;3.80;74.80;;;;;;5073799;28;20090;-67
2021/12/28 04:27:28;;;;;;;21.75;13.38;;;3.80;74.80;;;;;;5072943;28;20025;-66
2021/12/28 04:29:53;;;;;;;21.27;13.73;;;3.80;74.50;;;;;;5072320;28;20032;-66
2021/12/28 04:32:19;;;;;;;25.25;13.95;;;3.90;75.10;;;;;;5072310;28;20070;-68
2021/12/28 04:34:45;;;;;;;22.23;13.25;;;3.90;74.40;;;;;;5073941;28;20094;-67
2021/12/28 04:37:10;;;;;;;24.15;13.45;;;3.80;74.60;;;;;;5073015;28;20519;-67
2021/12/28 04:39:36;;;;;;;20.92;13.20;;;3.70;75.00;;;;;;5074198;28;20024;-67
2021/12/28 04:42:03;;;;;;;22.83;13.98;;;3.70;75.10;;;;;;5087188;28;20065;-67
2021/12/28 04:44:29;;;;;;;20.85;13.80;;;3.70;75.30;;;;;;5071534;28;20051;-67
2021/12/28 04:46:55;;;;;;;21.10;13.18;;;3.70;75.40;;;;;;5071981;28;20396;-67
2021/12/28 04:49:24;;;;;;;20.25;14.10;;;3.80;75.40;;;;;;5070848;28;20043;-67
2021/12/28 04:51:50;;;;;;;23.50;14.18;;;3.80;75.20;;;;;;5067385;28;20033;-67
2021/12/28 04:54:17;;;;;;;23.58;14.80;;;3.90;75.10;;;;;;5073053;28;20028;-67
2021/12/28 04:56:43;;;;;;;20.25;14.38;;;3.90;75.00;;;;;;5073516;28;20035;-67
2021/12/28 04:59:09;;;;;;;23.27;14.65;;;4.00;74.80;;;;;;5082874;28;20025;-67
2021/12/28 05:01:38;;;;;;;21.05;13.77;;;4.00;74.60;;;;;;5072204;28;20032;-67
2021/12/28 05:04:05;;;;;;;23.10;14.13;;;3.90;74.60;;;;;;5071929;28;20378;-66
2021/12/28 05:06:34;;;;;;;21.05;14.00;;;4.00;74.80;;;;;;5073380;28;20111;-66
2021/12/28 05:09:00;;;;;;;26.38;14.80;;;4.00;74.70;;;;;;5073019;28;20082;-66
2021/12/28 05:11:26;;;;;;;23.30;14.35;;;3.90;74.90;;;;;;5072177;28;20044;-66
2021/12/28 05:13:52;;;;;;;22.42;14.52;;;4.00;75.00;;;;;;5075444;28;20444;-66
2021/12/28 05:16:18;;;;;;;22.65;13.82;;;4.10;74.90;;;;;;5072341;28;20020;-67
2021/12/28 05:18:44;;;;;;;24.75;15.60;;;4.10;74.50;;;;;;5072349;28;20056;-67
2021/12/28 05:21:10;;;;;;;23.05;15.02;;;4.10;74.50;;;;;;5071695;28;20473;-67
2021/12/28 05:23:35;;;;;;;23.23;15.48;;;4.10;74.70;;;;;;5072870;28;20031;-67
2021/12/28 05:26:02;;;;;;;27.70;15.68;;;4.00;74.80;;;;;;5071035;28;20454;-67
2021/12/28 05:28:27;;;;;;;26.98;16.13;;;4.00;75.00;;;;;;5071875;28;20028;-66
2021/12/28 05:30:53;;;;;;;27.27;16.58;;;4.00;75.00;;;;;;5071125;28;20122;-66
2021/12/28 05:33:19;;;;;;;25.33;16.27;;;4.00;75.10;;;;;;5072465;28;20044;-66
2021/12/28 05:35:45;;;;;;;26.15;16.08;;;4.00;75.20;;;;;;5072399;28;20025;-66
2021/12/28 05:38:13;;;;;;;27.15;15.77;;;4.00;75.20;;;;;;5070860;28;20028;-66
2021/12/28 05:40:40;;;;;;;25.98;16.50;;;4.00;75.20;;;;;;5072988;28;20090;-67
2021/12/28 05:43:06;;;;;;;28.35;17.33;;;4.10;75.20;;;;;;5072009;28;20071;-68
2021/12/28 05:45:32;;;;;;;30.92;18.15;;;4.10;75.20;;;;;;5072441;28;20024;-66
2021/12/28 05:47:58;;;;;;;31.88;19.45;;;4.10;75.20;;;;;;5079827;28;20495;-66
2021/12/28 05:50:24;;;;;;;29.10;17.65;;;4.10;75.20;;;;;;5075560;28;20103;-67
2021/12/28 05:52:49;;;;;;;31.05;17.58;;;4.10;75.10;;;;;;5071523;28;20473;-67
2021/12/28 05:55:15;;;;;;;34.08;18.25;;;4.20;75.20;;;;;;5071646;28;20473;-67
2021/12/28 05:57:41;;;;;;;33.92;19.60;;;4.20;75.30;;;;;;5071193;28;20029;-67
2021/12/28 06:00:10;;;;;;;32.72;18.35;;;4.10;75.30;;;;;;5072103;28;20112;-68
2021/12/28 06:02:36;;;;;;;31.23;18.83;;;4.10;75.40;;;;;;5070404;28;20534;-67
2021/12/28 06:05:03;;;;;;;32.45;19.13;;;4.10;75.40;;;;;;5070522;28;20052;-67
2021/12/28 06:07:28;;;;;;;37.30;19.85;;;4.10;75.70;;;;;;5072771;28;20021;-67
2021/12/28 06:09:57;;;;;;;35.80;19.92;;;4.10;75.80;;;;;;5071420;28;20524;-67
2021/12/28 06:12:24;;;;;;;33.42;18.88;;;4.10;75.90;;;;;;5071215;28;20035;-67
2021/12/28 06:14:51;;;;;;;36.10;20.15;;;4.10;75.90;;;;;;5071506;28;20093;-67
2021/12/28 06:17:17;;;;;;;35.95;20.60;;;4.20;75.80;;;;;;5069098;28;20025;-67
2021/12/28 06:19:43;;;;;;;34.15;19.88;;;4.20;75.80;;;;;;5069382;28;20094;-67
2021/12/28 06:22:10;;;;;;;33.33;19.50;;;4.20;76.00;;;;;;5070082;28;20508;-68
2021/12/28 06:24:36;;;;;;;33.63;20.15;;;4.10;75.90;;;;;;5071092;28;20035;-67
2021/12/28 06:27:02;;;;;;;38.70;21.13;;;4.10;76.00;;;;;;5069663;28;20107;-67
2021/12/28 06:29:27;;;;;;;36.90;21.13;;;4.10;76.20;;;;;;5069095;28;20478;-67
2021/12/28 06:31:53;;;;;;;38.30;22.42;;;4.20;76.40;;;;;;5070028;28;20551;-67
2021/12/28 06:34:19;;;;;;;39.55;21.30;;;4.20;76.30;;;;;;5069053;28;20037;-67
2021/12/28 06:36:45;;;;;;;42.70;22.63;;;4.10;76.50;;;;;;5071062;28;20075;-67
2021/12/28 06:41:55;;;;;;;39.10;22.08;;;4.10;76.60;;;;;;5071280;28;20426;-67
2021/12/28 06:44:21;;;;;;;43.90;23.20;;;4.10;76.70;;;;;;5068906;28;20162;-67
2021/12/28 06:46:49;;;;;;;46.63;22.45;;;4.10;76.90;;;;;;5070684;28;20086;-67
2021/12/28 06:49:15;;;;;;;43.08;24.27;;;4.10;77.10;;;;;;5066509;28;20024;-67
2021/12/28 06:51:41;;;;;;;45.70;23.38;;;4.10;77.10;;;;;;5071168;28;20081;-67
2021/12/28 06:54:07;;;;;;;44.78;24.92;;;4.20;77.20;;;;;;5076552;28;20604;-69
2021/12/28 06:56:33;;;;;;;51.67;26.08;;;4.20;77.30;;;;;;5081863;28;20040;-69
2021/12/28 06:58:59;;;;;;;53.75;26.08;;;4.20;77.40;;;;;;5065079;28;20033;-68
2021/12/28 07:01:25;;;;;;;52.28;26.75;;;4.10;77.60;;;;;;5071374;28;20387;-68
2021/12/28 07:03:51;;;;;;;56.17;26.85;;;4.00;77.90;;;;;;5068362;28;20118;-68
2021/12/28 07:06:17;;;;;;;62.97;28.83;;;4.00;78.50;;;;;;5066937;28;20450;-69
2021/12/28 07:08:44;;;;;;;56.25;29.35;;;4.00;78.60;;;;;;5067814;28;20035;-68
2021/12/28 07:11:10;;;;;;;60.33;29.23;;;4.00;78.80;;;;;;5068003;28;20477;-69
2021/12/28 07:13:36;;;;;;;56.50;29.15;;;3.90;79.00;;;;;;5068215;28;20063;-67
2021/12/28 07:16:02;;;;;;;62.60;31.23;;;3.80;79.40;;;;;;5065083;28;20040;-67
2021/12/28 07:18:29;;;;;;;69.38;32.45;;;3.80;79.80;;;;;;5072470;28;20070;-67
2021/12/28 07:20:55;;;;;;;64.25;33.05;;;3.80;80.00;;;;;;5069367;28;20040;-67
2021/12/28 07:23:21;;;;;;;68.47;31.33;;;3.80;79.90;;;;;;5068845;28;20473;-67
2021/12/28 07:25:46;;;;;;;69.93;34.28;;;3.90;80.00;;;;;;5071109;28;20512;-67
2021/12/28 07:28:13;;;;;;;108.90;54.13;;;3.90;80.10;;;;;;5069295;28;20021;-67
2021/12/28 07:30:40;;;;;;;81.60;34.70;;;3.90;80.00;;;;;;5070584;28;20117;-67
2021/12/28 07:33:06;;;;;;;79.18;35.45;;;3.90;80.00;;;;;;5069641;28;20112;-67
2021/12/28 07:35:32;;;;;;;71.97;32.92;;;3.90;80.10;;;;;;5071025;28;20099;-67
2021/12/28 07:37:58;;;;;;;81.43;35.78;;;3.90;80.50;;;;;;5072200;28;20128;-67
2021/12/28 07:40:24;;;;;;;76.75;36.03;;;3.90;80.30;;;;;;5091122;28;20040;-69
2021/12/28 07:42:50;;;;;;;79.25;35.90;;;4.00;80.50;;;;;;5090418;28;20107;-70
2021/12/28 07:45:16;;;;;;;79.82;35.90;;;3.90;80.50;;;;;;5054703;28;20098;-68
2021/12/28 07:47:43;;;;;;;77.63;35.15;;;4.00;80.70;;;;;;5071469;28;20035;-66
2021/12/28 07:50:10;;;;;;;79.82;35.67;;;4.00;80.70;;;;;;5069446;28;20083;-67
2021/12/28 07:52:38;;;;;;;84.53;35.67;;;4.00;80.60;;;;;;5071578;28;20029;-67
2021/12/28 07:55:06;;;;;;;73.28;34.17;;;4.10;80.50;;;;;;5078226;28;20425;-67
2021/12/28 07:57:34;;;;;;;80.95;34.95;;;4.20;80.40;;;;;;5075053;28;20024;-68
2021/12/28 08:00:00;;;;;;;83.78;37.97;;;4.20;80.20;;;;;;5074465;28;20477;-67
2021/12/28 08:02:26;;;;;;;88.15;36.97;;;4.20;80.20;;;;;;5074914;28;20036;-67
2021/12/28 08:04:52;;;;;;;85.82;37.65;;;4.10;80.70;;;;;;5056829;28;20033;-68
2021/12/28 08:07:18;;;;;;;87.35;37.00;;;4.10;80.80;;;;;;5074876;28;20032;-66
2021/12/28 08:09:43;;;;;;;105.22;51.55;;;4.10;81.00;;;;;;5074258;28;20028;-66
2021/12/28 08:12:10;;;;;;;88.53;37.17;;;4.00;81.20;;;;;;5072005;28;20044;-66
2021/12/28 08:14:36;;;;;;;90.53;39.72;;;4.10;81.40;;;;;;5075026;28;20035;-69
2021/12/28 08:17:01;;;;;;;86.40;37.97;;;4.10;81.30;;;;;;5074683;28;20369;-66
2021/12/28 08:19:27;;;;;;;93.03;38.72;;;4.00;81.30;;;;;;5074957;28;20165;-68
2021/12/28 08:21:53;;;;;;;84.75;37.22;;;4.00;81.50;;;;;;5074424;28;20025;-70
2021/12/28 08:24:19;;;;;;;98.95;39.78;;;4.00;81.60;;;;;;5072457;28;20138;-67
2021/12/28 08:26:45;;;;;;;91.13;41.58;;;4.00;81.60;;;;;;5063244;28;20035;-67
2021/12/28 08:29:11;;;;;;;98.53;45.65;;;4.00;81.70;;;;;;5073170;28;20036;-68
2021/12/28 08:31:36;;;;;;;85.00;38.38;;;4.00;81.80;;;;;;5074570;28;20020;-68
2021/12/28 08:34:03;;;;;;;91.78;39.47;;;4.10;81.70;;;;;;5074397;28;20029;-68
2021/12/28 08:36:29;;;;;;;90.13;37.88;;;4.10;81.60;;;;;;5074931;28;20024;-67
2021/12/28 08:38:55;;;;;;;119.95;61.42;;;4.10;81.40;;;;;;5074073;28;20033;-68
2021/12/28 08:41:21;;;;;;;94.82;42.25;;;4.10;81.60;;;;;;5074529;28;20029;-67
2021/12/28 08:43:47;;;;;;;87.30;40.22;;;4.10;81.70;;;;;;5074820;28;20036;-68
2021/12/28 08:46:14;;;;;;;89.47;38.75;;;4.10;81.60;;;;;;5087778;28;20071;-68
2021/12/28 08:48:40;;;;;;;90.25;38.60;;;4.20;81.50;;;;;;5081110;28;20037;-67
2021/12/28 08:51:07;;;;;;;92.03;36.65;;;4.10;81.60;;;;;;5072385;28;20052;-69
2021/12/28 08:53:33;;;;;;;92.00;39.15;;;4.10;81.90;;;;;;5074226;28;20028;-75
2021/12/28 08:55:59;;;;;;;93.80;38.58;;;4.00;82.30;;;;;;5073040;28;20361;-71
2021/12/28 08:58:24;;;;;;;93.85;40.30;;;3.90;82.50;;;;;;5074024;28;20115;-75
2021/12/28 09:00:50;;;;;;;96.47;39.85;;;4.00;82.60;;;;;;5073639;28;20431;-74
2021/12/28 09:03:16;;;;;;;86.70;38.15;;;4.10;82.50;;;;;;5070860;28;20126;-75
2021/12/28 09:05:42;;;;;;;96.15;39.78;;;4.10;82.50;;;;;;5073626;28;20365;-72
2021/12/28 09:08:13;;;;;;;100.50;40.38;;;4.10;82.30;;;;;;5072563;28;20025;-74
2021/12/28 09:10:40;;;;;;;91.35;36.88;;;4.10;82.30;;;;;;5073476;28;20060;-74
2021/12/28 09:13:07;;;;;;;94.38;37.78;;;4.00;82.50;;;;;;5071849;28;20124;-75
2021/12/28 09:15:35;;;;;;;92.55;37.42;;;4.00;82.70;;;;;;5072664;28;20455;-74
2021/12/28 09:18:01;;;;;;;93.72;41.08;;;4.00;82.90;;;;;;5071830;28;20033;-73
2021/12/28 09:20:26;;;;;;;90.97;37.95;;;4.10;82.90;;;;;;5094184;28;20039;-76
2021/12/28 09:22:53;;;;;;;92.13;37.63;;;4.10;82.70;;;;;;5093013;28;20472;-75
2021/12/28 09:25:19;;;;;;;94.63;38.10;;;4.00;82.60;;;;;;5093010;28;20020;-75
2021/12/28 09:27:46;;;;;;;91.75;39.13;;;4.00;82.80;;;;;;5094184;28;20024;-75
2021/12/28 09:30:13;;;;;;;95.78;40.00;;;4.00;83.00;;;;;;5091909;28;20028;-75
2021/12/28 09:32:39;;;;;;;90.90;37.60;;;4.10;82.90;;;;;;5093943;28;20036;-76
2021/12/28 09:35:06;;;;;;;88.68;35.90;;;4.10;82.70;;;;;;5093173;28;20461;-75
2021/12/28 09:37:35;;;;;;;92.88;38.53;;;4.10;82.80;;;;;;5071733;28;20099;-75
2021/12/28 09:40:03;;;;;;;90.75;36.45;;;4.10;82.60;;;;;;5071213;28;20029;-73
2021/12/28 09:42:28;;;;;;;79.63;34.30;;;4.10;82.70;;;;;;5072652;28;20170;-75
2021/12/28 09:44:54;;;;;;;91.28;40.10;;;4.10;82.70;;;;;;5071208;28;20054;-75
2021/12/28 09:47:20;;;;;;;89.15;36.13;;;4.10;82.60;;;;;;5072294;28;20021;-76
2021/12/28 09:49:47;;;;;;;97.03;37.85;;;4.10;82.70;;;;;;5072155;28;20024;-76
2021/12/28 09:52:14;;;;;;;82.75;35.30;;;4.10;82.70;;;;;;5070703;28;20037;-77
2021/12/28 09:54:41;;;;;;;76.53;34.03;;;4.10;82.60;;;;;;5089100;28;20029;-77
2021/12/28 09:57:07;;;;;;;92.60;37.10;;;4.20;82.50;;;;;;5071997;28;20016;-75
2021/12/28 09:59:33;;;;;;;79.95;34.30;;;4.20;82.30;;;;;;5071665;28;20028;-75
2021/12/28 10:02:01;;;;;;;72.28;31.10;;;4.40;82.30;;;;;;5073141;28;20020;-74
2021/12/28 10:04:27;;;;;;;69.85;31.75;;;4.40;81.60;;;;;;5078424;28;20041;-76
2021/12/28 10:07:17;;;;;;;78.47;31.27;;;4.30;81.40;;;;;;5064210;28;20468;-66
2021/12/28 10:09:43;;;;;;;68.40;29.58;;;4.30;81.40;;;;;;5086757;28;20032;-68
2021/12/28 10:12:10;;;;;;;73.68;32.33;;;4.30;81.60;;;;;;5071695;28;20025;-70
2021/12/28 10:14:36;;;;;;;75.45;33.45;;;4.30;81.70;;;;;;5072172;28;20029;-69
2021/12/28 10:17:06;;;;;;;79.80;33.47;;;4.50;81.60;;;;;;5070777;28;20026;-72
2021/12/28 10:19:44;;;;;;;75.78;32.47;;;4.40;81.20;;;;;;5067521;28;20166;-67
2021/12/28 10:22:25;;;;;;;73.28;30.55;;;4.40;81.40;;;;;;5070226;28;20025;-72
2021/12/28 10:24:54;;;;;;;80.22;33.28;;;4.40;81.20;;;;;;5072440;28;20040;-68
2021/12/28 10:27:22;;;;;;;78.80;32.05;;;4.30;81.20;;;;;;5071953;28;20048;-69
2021/12/28 10:29:48;;;;;;;74.80;31.60;;;4.20;81.70;;;;;;5072495;28;20025;-63
2021/12/28 10:32:28;;;;;;;72.65;31.48;;;4.20;82.10;;;;;;5065898;28;20025;-65
2021/12/28 10:34:59;;;;;;;70.05;30.98;;;4.10;82.30;;;;;;5067894;28;20437;-66
2021/12/28 10:37:32;;;;;;;65.40;29.52;;;4.10;82.70;;;;;;5068426;28;20473;-63
2021/12/28 10:39:59;;;;;;;64.15;28.48;;;4.10;82.80;;;;;;5068629;28;20036;-66
2021/12/28 10:42:43;;;;;;;61.13;29.42;;;4.20;82.60;;;;;;5068937;28;20028;-65
2021/12/28 10:45:13;;;;;;;64.18;28.02;;;4.20;82.30;;;;;;5070857;28;20039;-65
2021/12/28 10:47:39;;;;;;;61.30;27.50;;;4.20;82.40;;;;;;5070035;28;20486;-68
2021/12/28 10:50:37;;;;;;;62.13;26.17;;;4.20;82.40;;;;;;5070671;28;20024;-65
2021/12/28 10:53:18;;;;;;;53.88;24.55;;;4.10;82.50;;;;;;5057968;28;20040;-65
2021/12/28 10:55:45;;;;;;;53.40;24.55;;;4.20;82.80;;;;;;5068109;28;20017;-65
2021/12/28 10:58:31;;;;;;;53.38;23.88;;;4.20;82.50;;;;;;5068962;28;20480;-64
2021/12/28 11:01:06;;;;;;;58.90;24.33;;;4.20;82.40;;;;;;5069740;28;20032;-63
2021/12/28 11:03:34;;;;;;;50.65;24.10;;;4.10;82.70;;;;;;5070005;28;20039;-64
2021/12/28 11:06:06;;;;;;;51.00;24.17;;;4.10;82.90;;;;;;5071079;28;20028;-62
2021/12/28 11:08:32;;;;;;;55.25;28.08;;;4.00;83.30;;;;;;5070498;28;20072;-62
2021/12/28 11:11:01;;;;;;;49.22;23.85;;;4.00;83.40;;;;;;5082463;28;20055;-62
2021/12/28 11:13:30;;;;;;;50.80;24.65;;;4.00;83.40;;;;;;5089953;28;20399;-61
2021/12/28 11:15:57;;;;;;;51.35;21.80;;;4.00;83.20;;;;;;5089863;28;20512;-62
2021/12/28 11:18:33;;;;;;;56.60;23.30;;;4.00;83.20;;;;;;5082202;28;20032;-61
2021/12/28 11:21:09;;;;;;;46.10;21.55;;;4.00;83.20;;;;;;5067056;28;20028;-68
2021/12/28 11:23:34;;;;;;;51.88;21.95;;;3.90;83.40;;;;;;5067670;28;20132;-69
2021/12/28 11:26:14;;;;;;;44.08;20.95;;;3.90;83.70;;;;;;5073872;28;20098;-66
2021/12/28 11:28:41;;;;;;;44.33;21.73;;;3.80;83.70;;;;;;5091077;28;20032;-65
2021/12/28 11:31:14;;;;;;;46.20;21.63;;;3.80;84.00;;;;;;5090486;28;20472;-65
2021/12/28 11:33:49;;;;;;;49.30;22.23;;;3.80;84.20;;;;;;5089999;28;20039;-63
2021/12/28 11:36:17;;;;;;;45.30;22.52;;;3.90;84.10;;;;;;5079458;28;20096;-62
2021/12/28 11:38:44;;;;;;;43.05;20.88;;;4.00;83.90;;;;;;5070032;28;20016;-63
2021/12/28 11:41:10;;;;;;;46.20;22.15;;;4.00;83.60;;;;;;5070348;28;20135;-62
2021/12/28 11:43:38;;;;;;;43.80;23.02;;;4.10;83.30;;;;;;5067351;28;20040;-65
2021/12/28 11:46:05;;;;;;;40.75;21.52;;;4.10;83.10;;;;;;5067539;28;20047;-65
2021/12/28 11:48:32;;;;;;;46.35;21.73;;;4.00;83.20;;;;;;5067863;28;20024;-62
2021/12/28 11:50:58;;;;;;;40.63;20.38;;;4.10;83.00;;;;;;5068188;28;20037;-64
2021/12/28 11:53:26;;;;;;;48.78;21.60;;;4.10;82.80;;;;;;5068709;28;20036;-62
2021/12/28 11:55:55;;;;;;;46.42;22.65;;;4.10;82.90;;;;;;5070507;28;20032;-63
2021/12/28 11:58:50;;;;;;;43.00;21.30;;;4.10;83.00;;;;;;5083851;28;20036;-63
2021/12/28 12:01:51;;;;;;;39.30;20.27;;;4.10;82.60;;;;;;5068559;28;20039;-64
2021/12/28 12:04:32;;;;;;;41.03;21.02;;;4.00;82.50;;;;;;5028549;28;20033;-64
2021/12/28 12:07:12;;;;;;;43.38;20.52;;;4.10;82.90;;;;;;5061880;28;20530;-65
2021/12/28 12:09:53;;;;;;;41.10;19.92;;;4.00;82.50;;;;;;5065163;28;20028;-63
2021/12/28 12:12:23;;;;;;;39.03;20.58;;;3.90;82.90;;;;;;5068878;28;20032;-61
2021/12/28 12:14:52;;;;;;;39.70;21.67;;;4.00;83.00;;;;;;5068409;28;20041;-62
2021/12/28 12:17:42;;;;;;;37.97;20.25;;;3.90;83.00;;;;;;5067412;28;20032;-63
2021/12/28 12:20:23;;;;;;;41.47;20.63;;;4.00;83.20;;;;;;5068939;28;20033;-67
2021/12/28 12:22:55;;;;;;;40.40;20.65;;;4.10;82.90;;;;;;5069591;28;20025;-63
2021/12/28 12:25:29;;;;;;;40.17;21.05;;;4.10;82.50;;;;;;5069454;28;20381;-63
2021/12/28 12:27:59;;;;;;;41.45;20.40;;;4.00;82.40;;;;;;5069220;28;20484;-63
2021/12/28 12:30:25;;;;;;;43.30;22.48;;;4.00;82.70;;;;;;5071192;28;20498;-64
2021/12/28 12:33:07;;;;;;;44.30;21.58;;;3.80;82.90;;;;;;5078676;28;20033;-62
2021/12/28 12:35:49;;;;;;;44.65;21.48;;;3.80;83.30;;;;;;5068407;28;20029;-61
2021/12/28 12:38:27;;;;;;;36.30;19.35;;;3.80;83.70;;;;;;5066863;28;20463;-61
2021/12/28 12:40:59;;;;;;;40.67;21.27;;;3.80;83.70;;;;;;5073783;28;20052;-61
2021/12/28 12:43:38;;;;;;;41.40;19.80;;;3.80;83.90;;;;;;5072544;28;20303;-64
2021/12/28 12:46:21;;;;;;;46.95;20.60;;;3.80;83.80;;;;;;5072912;28;20021;-64
2021/12/28 12:48:46;;;;;;;34.70;18.13;;;3.90;84.10;;;;;;5071325;28;20032;-57